Leopoldsburg, Belgium
Current Conditions -  °F | °C
As of 2:55 PM on Friday 19 Dec 2014 (Local Time) from EBBL Reporting Station
Broken Clouds Broken Clouds  
Wind Chill: 42°   Ceiling: 4000
Heat Index: 46°   Visibility: 6mi
Dew Point: 41°   Wind: 8mph
Humidity: 81%   Direction: 270°W
Pressure: 29.94"   Gusts: NA
Location:  51.12°N, 5.25°E
Report Text: EBBL 191355Z 27007KT 9999 SCT032 BKN040 08/05 Q1014 BLU
Loading
Personal Weather Stations






























Interactive Weather Map New forecast layout! Learn more

10-Day Weather Forecast

Advertisements
Track Severe Weather on mobile